createdAt,value
2023-05-04T00:00:52.026Z,1.49
2023-05-04T00:01:51.304Z,1.57
2023-05-04T00:02:51.307Z,1.57
2023-05-04T00:03:51.369Z,1.53
2023-05-04T00:04:51.242Z,1.73
2023-05-04T00:05:51.163Z,1.76
2023-05-04T00:06:51.121Z,1.71
2023-05-04T00:07:51.075Z,1.50
2023-05-04T00:08:51.023Z,1.96
2023-05-04T00:09:51.017Z,1.43
2023-05-04T00:10:51.027Z,1.63
2023-05-04T00:11:51.058Z,1.73
2023-05-04T00:12:51.145Z,2.13
2023-05-04T00:13:51.119Z,1.29
2023-05-04T00:14:51.149Z,1.50
2023-05-04T00:15:51.218Z,1.57
2023-05-04T00:16:51.179Z,1.53
2023-05-04T00:17:51.270Z,1.48
2023-05-04T00:18:51.223Z,1.52
2023-05-04T00:19:51.255Z,1.35
2023-05-04T00:20:51.266Z,2.03
2023-05-04T00:21:51.280Z,1.52
2023-05-04T00:22:51.304Z,1.47
2023-05-04T00:23:51.327Z,1.52
2023-05-04T00:24:51.344Z,1.63
2023-05-04T00:25:51.368Z,1.48
2023-05-04T00:26:51.387Z,1.61
2023-05-04T00:27:51.418Z,1.77
2023-05-04T00:28:51.444Z,1.65
2023-05-04T00:29:51.473Z,1.67
2023-05-04T00:30:51.508Z,1.66
2023-05-04T00:31:51.563Z,1.49
2023-05-04T00:32:51.595Z,1.50
2023-05-04T00:33:51.590Z,1.51
2023-05-04T00:34:51.579Z,1.96
2023-05-04T00:35:51.620Z,1.49
2023-05-04T00:36:51.627Z,1.93
2023-05-04T00:37:51.662Z,1.50
2023-05-04T00:38:51.769Z,1.62
2023-05-04T00:39:51.699Z,1.47
2023-05-04T00:40:51.716Z,1.70
2023-05-04T00:41:51.739Z,1.73
2023-05-04T00:42:51.760Z,1.72
2023-05-04T00:43:51.797Z,1.56
2023-05-04T00:44:51.823Z,1.57
2023-05-04T00:45:51.853Z,1.69
2023-05-04T00:46:51.925Z,1.61
2023-05-04T00:47:51.947Z,1.53
2023-05-04T00:48:51.946Z,1.97
2023-05-04T00:49:51.997Z,1.55
2023-05-04T00:50:52.023Z,1.54
2023-05-04T00:51:52.050Z,1.49
2023-05-04T00:52:52.087Z,1.76
2023-05-04T00:53:52.103Z,1.24
2023-05-04T00:54:52.142Z,1.76
2023-05-04T00:55:52.177Z,1.67
2023-05-04T00:56:52.211Z,1.45
2023-05-04T00:57:52.238Z,1.57
2023-05-04T00:58:52.258Z,1.58
2023-05-04T00:59:52.288Z,1.46
2023-05-04T01:00:52.302Z,1.75
2023-05-04T01:01:52.330Z,1.77
2023-05-04T01:02:52.454Z,1.50
2023-05-04T01:03:52.419Z,1.66
2023-05-04T01:04:52.407Z,1.98
2023-05-04T01:05:52.465Z,1.42
2023-05-04T01:06:52.466Z,1.51
2023-05-04T01:07:52.486Z,1.75
2023-05-04T01:08:52.511Z,1.78
2023-05-04T01:09:52.540Z,1.76
2023-05-04T01:10:52.576Z,1.47
2023-05-04T01:11:52.616Z,1.40
2023-05-04T01:12:52.697Z,1.24
2023-05-04T01:13:52.680Z,1.88
2023-05-04T01:14:52.708Z,2.49
2023-05-04T01:15:52.748Z,1.46
2023-05-04T01:16:52.806Z,1.46
2023-05-04T01:17:52.848Z,1.59
2023-05-04T01:18:52.830Z,1.64
2023-05-04T01:19:52.861Z,1.56
2023-05-04T01:20:52.882Z,1.63
2023-05-04T01:21:52.925Z,1.44
2023-05-04T01:22:52.931Z,1.52
2023-05-04T01:23:52.938Z,1.45
2023-05-04T01:24:52.965Z,1.34
2023-05-04T01:25:52.995Z,1.91
2023-05-04T01:26:53.047Z,1.66
2023-05-04T01:27:53.071Z,1.41
2023-05-04T01:28:53.087Z,1.72
2023-05-04T01:29:53.119Z,1.47
2023-05-04T01:30:53.159Z,1.66
2023-05-04T01:31:53.164Z,1.46
2023-05-04T01:32:53.195Z,1.61
2023-05-04T01:33:53.197Z,1.33
2023-05-04T01:34:53.222Z,1.59
2023-05-04T01:35:53.244Z,1.42
2023-05-04T01:36:53.280Z,1.86
2023-05-04T01:37:53.290Z,1.46
2023-05-04T01:38:53.298Z,1.40
2023-05-04T01:39:53.313Z,1.56
2023-05-04T01:40:53.335Z,1.08
2023-05-04T01:41:53.371Z,1.43
2023-05-04T01:42:53.386Z,1.67
2023-05-04T01:43:53.409Z,1.40
2023-05-04T01:44:53.412Z,1.77
2023-05-04T01:45:53.447Z,1.59
2023-05-04T01:46:53.453Z,1.25
2023-05-04T01:47:53.481Z,1.42
2023-05-04T01:48:53.515Z,1.75
2023-05-04T01:49:53.560Z,1.89
2023-05-04T01:50:53.580Z,1.65
2023-05-04T01:51:53.625Z,1.60
2023-05-04T01:52:53.618Z,1.56
2023-05-04T01:53:53.633Z,1.83
2023-05-04T01:54:53.654Z,1.41
2023-05-04T01:55:53.678Z,1.77
2023-05-04T01:56:53.656Z,1.83
2023-05-04T01:57:53.702Z,1.25
2023-05-04T01:58:53.721Z,1.37
2023-05-04T01:59:53.752Z,1.94
2023-05-04T02:00:53.781Z,1.39
2023-05-04T02:01:53.825Z,1.64
2023-05-04T02:02:53.903Z,1.54
2023-05-04T02:03:53.977Z,1.46
2023-05-04T02:04:53.908Z,1.52
2023-05-04T02:05:53.941Z,1.52
2023-05-04T02:06:53.998Z,1.76
2023-05-04T02:07:54.005Z,1.48
2023-05-04T02:08:54.019Z,1.43
2023-05-04T02:09:54.049Z,1.49
2023-05-04T02:10:54.094Z,1.41
2023-05-04T02:11:54.134Z,1.70
2023-05-04T02:12:54.158Z,1.68
2023-05-04T02:13:54.163Z,1.14
2023-05-04T02:14:54.132Z,1.64
2023-05-04T02:15:54.170Z,1.74
2023-05-04T02:16:54.186Z,1.56
2023-05-04T02:17:54.260Z,1.78
2023-05-04T02:18:54.242Z,1.15
2023-05-04T02:19:54.289Z,1.66
2023-05-04T02:20:54.299Z,1.57
2023-05-04T02:21:54.333Z,1.82
2023-05-04T02:22:54.362Z,1.45
2023-05-04T02:23:54.418Z,1.60
2023-05-04T02:24:54.435Z,1.53
2023-05-04T02:25:54.464Z,1.80
2023-05-04T02:26:54.486Z,1.74
2023-05-04T02:27:54.501Z,1.45
2023-05-04T02:28:54.517Z,1.35
2023-05-04T02:29:54.518Z,1.49
2023-05-04T02:30:54.612Z,1.86
2023-05-04T02:31:54.645Z,1.45
2023-05-04T02:32:54.654Z,1.59
2023-05-04T02:33:54.626Z,1.59
2023-05-04T02:34:54.631Z,1.58
2023-05-04T02:35:54.650Z,1.33
2023-05-04T02:36:54.683Z,1.84
2023-05-04T02:37:54.714Z,1.54
2023-05-04T02:38:54.766Z,1.43
2023-05-04T02:39:54.793Z,1.30
2023-05-04T02:40:54.831Z,1.48
2023-05-04T02:41:54.870Z,1.58
2023-05-04T02:42:54.894Z,1.75
2023-05-04T02:43:54.914Z,1.57
2023-05-04T02:44:54.958Z,1.33
2023-05-04T02:45:55.074Z,1.99
2023-05-04T02:46:54.988Z,1.54
2023-05-04T02:47:55.051Z,1.56
2023-05-04T02:48:55.055Z,1.50
2023-05-04T02:49:55.075Z,1.34
2023-05-04T02:50:55.069Z,1.46
2023-05-04T02:51:55.065Z,1.65
2023-05-04T02:52:55.083Z,1.82
2023-05-04T02:53:55.065Z,1.52
2023-05-04T02:54:55.121Z,1.44
2023-05-04T02:55:55.095Z,1.55
2023-05-04T02:56:55.108Z,1.34
2023-05-04T02:57:55.076Z,1.38
2023-05-04T02:58:55.080Z,1.43
2023-05-04T02:59:55.088Z,1.34
2023-05-04T03:00:55.164Z,1.39
2023-05-04T03:01:55.312Z,1.48
2023-05-04T03:02:55.259Z,1.38
2023-05-04T03:03:55.320Z,1.49
2023-05-04T03:04:55.332Z,1.73
2023-05-04T03:05:55.358Z,1.40
2023-05-04T03:06:55.399Z,1.37
2023-05-04T03:07:55.446Z,1.59
2023-05-04T03:08:55.480Z,1.26
2023-05-04T03:09:55.506Z,1.68
2023-05-04T03:10:55.518Z,1.66
2023-05-04T03:11:55.517Z,1.59
2023-05-04T03:12:55.582Z,1.50
2023-05-04T03:13:55.559Z,1.71
2023-05-04T03:14:55.567Z,1.52
2023-05-04T03:15:55.608Z,1.40
2023-05-04T03:16:55.661Z,1.69
2023-05-04T03:17:55.671Z,1.21
2023-05-04T03:18:55.695Z,1.65
2023-05-04T03:19:55.678Z,1.45
2023-05-04T03:20:55.689Z,1.31
2023-05-04T03:21:55.686Z,1.35
2023-05-04T03:22:55.659Z,1.34
2023-05-04T03:23:55.672Z,1.44
2023-05-04T03:24:55.653Z,1.31
2023-05-04T03:25:55.644Z,1.46
2023-05-04T03:26:55.650Z,1.36
2023-05-04T03:27:55.763Z,1.48
2023-05-04T03:28:55.768Z,1.47
2023-05-04T03:29:55.822Z,1.58
2023-05-04T03:30:55.879Z,1.54
2023-05-04T03:31:55.961Z,1.38
2023-05-04T03:32:56.037Z,1.52
2023-05-04T03:33:55.926Z,1.64
2023-05-04T03:34:55.969Z,1.41
2023-05-04T03:35:55.998Z,1.50
2023-05-04T03:36:56.062Z,1.74
2023-05-04T03:37:55.990Z,1.46
2023-05-04T03:38:55.979Z,1.77
2023-05-04T03:39:56.030Z,1.50
2023-05-04T03:40:56.021Z,1.65
2023-05-04T03:41:56.091Z,1.32
2023-05-04T03:42:56.135Z,1.41
2023-05-04T03:43:56.188Z,1.69
2023-05-04T03:44:56.250Z,1.35
2023-05-04T03:45:56.319Z,1.31
2023-05-04T03:46:56.265Z,1.39
2023-05-04T03:47:56.310Z,1.36
2023-05-04T03:48:56.272Z,1.50
2023-05-04T03:49:56.295Z,1.56
2023-05-04T03:50:56.299Z,1.68
2023-05-04T03:51:56.341Z,1.35
2023-05-04T03:52:56.333Z,1.49
2023-05-04T03:53:56.323Z,1.92
2023-05-04T03:54:56.403Z,1.49
2023-05-04T03:55:56.463Z,1.76
2023-05-04T03:56:56.518Z,1.61
2023-05-04T03:57:56.582Z,1.40
2023-05-04T03:58:56.613Z,1.54
2023-05-04T03:59:57.954Z,1.61
2023-05-04T04:00:56.698Z,1.52
2023-05-04T04:01:56.696Z,1.45
2023-05-04T04:02:56.801Z,1.38
2023-05-04T04:03:56.837Z,1.95
2023-05-04T04:04:56.730Z,1.49
2023-05-04T04:05:56.696Z,1.68
2023-05-04T04:06:56.660Z,1.34
2023-05-04T04:07:56.695Z,1.49
2023-05-04T04:08:56.732Z,1.29
2023-05-04T04:09:56.815Z,1.29
2023-05-04T04:10:56.786Z,1.39
2023-05-04T04:11:56.751Z,1.41
2023-05-04T04:12:56.764Z,1.38
2023-05-04T04:13:56.714Z,1.54
2023-05-04T04:14:56.751Z,1.51
2023-05-04T04:15:56.731Z,1.36
2023-05-04T04:16:56.728Z,1.39
2023-05-04T04:17:56.758Z,1.52
2023-05-04T04:18:56.671Z,1.34
2023-05-04T04:19:56.659Z,1.73
2023-05-04T04:20:56.657Z,1.79
2023-05-04T04:21:56.641Z,1.44
2023-05-04T04:22:56.633Z,1.45
2023-05-04T04:23:56.687Z,1.24
2023-05-04T04:24:56.745Z,1.23
2023-05-04T04:25:56.750Z,1.49
2023-05-04T04:26:56.737Z,1.23
2023-05-04T04:27:56.737Z,1.45
2023-05-04T04:28:56.691Z,1.83
2023-05-04T04:29:56.668Z,1.42
2023-05-04T04:30:56.651Z,1.39
2023-05-04T04:31:56.648Z,1.16
2023-05-04T04:32:56.621Z,1.54
2023-05-04T04:33:56.533Z,1.63
2023-05-04T04:34:56.517Z,1.49
2023-05-04T04:35:56.526Z,1.50
2023-05-04T04:36:56.580Z,1.32
2023-05-04T04:37:56.652Z,1.12
2023-05-04T04:38:56.700Z,1.49
2023-05-04T04:39:56.749Z,1.70
2023-05-04T04:40:56.816Z,1.34
2023-05-04T04:41:56.787Z,1.56
2023-05-04T04:42:56.793Z,1.24
2023-05-04T04:43:56.774Z,1.20
2023-05-04T04:44:56.767Z,1.23
2023-05-04T04:45:56.759Z,1.20
2023-05-04T04:46:56.873Z,1.30
2023-05-04T04:47:56.822Z,1.36
2023-05-04T04:48:56.794Z,1.64
2023-05-04T04:49:56.849Z,1.41
2023-05-04T04:50:56.898Z,1.33
2023-05-04T04:51:56.974Z,1.82
2023-05-04T04:52:57.018Z,1.85
2023-05-04T04:53:57.069Z,1.54
2023-05-04T04:54:57.137Z,1.49
2023-05-04T04:55:57.174Z,1.52
2023-05-04T04:56:57.229Z,1.50
2023-05-04T04:57:57.288Z,1.70
2023-05-04T04:58:57.256Z,1.26
2023-05-04T04:59:57.230Z,1.50
2023-05-04T05:00:57.235Z,1.43
2023-05-04T05:01:57.192Z,1.25
2023-05-04T05:02:57.259Z,1.55
2023-05-04T05:03:57.153Z,1.34
2023-05-04T05:04:57.219Z,1.69
2023-05-04T05:05:57.154Z,1.12
2023-05-04T05:06:57.163Z,1.31
2023-05-04T05:07:57.168Z,1.31
2023-05-04T05:08:57.183Z,1.62
2023-05-04T05:09:57.206Z,1.25
2023-05-04T05:10:57.183Z,1.43
2023-05-04T05:11:57.143Z,1.36
2023-05-04T05:12:57.163Z,1.13
2023-05-04T05:13:57.180Z,1.33
2023-05-04T05:14:57.178Z,1.44
2023-05-04T05:15:57.154Z,1.58
2023-05-04T05:16:57.155Z,1.47
2023-05-04T05:17:57.140Z,1.40
2023-05-04T05:18:57.119Z,1.57
2023-05-04T05:19:57.134Z,1.20
2023-05-04T05:20:57.149Z,2.13
2023-05-04T05:21:57.141Z,2.23
2023-05-04T05:22:57.133Z,2.24
2023-05-04T05:23:57.126Z,2.64
2023-05-04T05:24:57.139Z,2.34
2023-05-04T05:25:57.169Z,2.58
2023-05-04T05:26:57.201Z,2.58
2023-05-04T05:27:57.308Z,2.28
2023-05-04T05:28:57.293Z,2.64
2023-05-04T05:29:57.313Z,2.61
2023-05-04T05:30:57.336Z,2.74
2023-05-04T05:31:57.312Z,3.00
2023-05-04T05:32:57.357Z,2.84
2023-05-04T05:33:57.310Z,2.73
2023-05-04T05:34:57.380Z,2.71
2023-05-04T05:35:57.284Z,2.69
2023-05-04T05:36:57.259Z,2.72
2023-05-04T05:37:57.248Z,2.79
2023-05-04T05:38:57.234Z,2.60
2023-05-04T05:39:57.185Z,3.23
2023-05-04T05:40:57.176Z,2.81
2023-05-04T05:41:57.240Z,3.26
2023-05-04T05:42:57.302Z,2.99
2023-05-04T05:43:57.355Z,3.01
2023-05-04T05:44:57.411Z,3.10
2023-05-04T05:45:57.509Z,2.50
2023-05-04T05:46:57.540Z,2.97
2023-05-04T05:47:57.689Z,2.99
2023-05-04T05:48:57.578Z,3.08
2023-05-04T05:49:57.539Z,3.08
2023-05-04T05:50:57.496Z,3.07
2023-05-04T05:51:57.493Z,2.85
2023-05-04T05:52:57.456Z,2.85
2023-05-04T05:53:57.450Z,3.34
2023-05-04T05:54:57.497Z,3.25
2023-05-04T05:55:57.506Z,3.11
2023-05-04T05:56:57.520Z,3.49
2023-05-04T05:57:57.542Z,3.36
2023-05-04T05:58:57.569Z,2.82
2023-05-04T05:59:57.632Z,2.70
2023-05-04T06:00:57.621Z,3.23
2023-05-04T06:01:57.689Z,3.04
2023-05-04T06:02:57.748Z,2.83
2023-05-04T06:03:57.810Z,3.18
2023-05-04T06:04:57.818Z,2.89
2023-05-04T06:05:57.742Z,3.08
2023-05-04T06:06:57.775Z,2.88
2023-05-04T06:07:57.788Z,3.06
2023-05-04T06:08:57.809Z,3.00
2023-05-04T06:09:57.833Z,3.05
2023-05-04T06:10:57.845Z,2.66
2023-05-04T06:11:57.867Z,3.18
2023-05-04T06:12:57.931Z,2.57
2023-05-04T06:13:57.893Z,2.71
2023-05-04T06:14:57.938Z,2.60
2023-05-04T06:15:58.015Z,2.47
2023-05-04T06:16:57.905Z,2.65
2023-05-04T06:17:57.981Z,2.67
2023-05-04T06:18:57.924Z,2.77
2023-05-04T06:19:57.916Z,2.68
2023-05-04T06:20:57.915Z,2.71
2023-05-04T06:21:57.914Z,2.87
2023-05-04T06:22:57.919Z,3.10
2023-05-04T06:23:57.919Z,2.69
2023-05-04T06:25:02.888Z,2.79
2023-05-04T06:25:58.858Z,2.56
2023-05-04T06:26:57.792Z,2.78
2023-05-04T06:27:57.746Z,2.71
2023-05-04T06:28:57.710Z,2.50
2023-05-04T06:29:57.682Z,3.25
2023-05-04T06:30:57.584Z,2.38
2023-05-04T06:31:57.587Z,2.48
2023-05-04T06:32:57.560Z,2.96
2023-05-04T06:33:57.454Z,2.71
2023-05-04T06:34:57.418Z,2.67
2023-05-04T06:35:57.345Z,2.23
2023-05-04T06:36:57.281Z,3.10
2023-05-04T06:37:57.226Z,3.11
2023-05-04T06:38:57.170Z,2.66
2023-05-04T06:39:57.128Z,2.98
2023-05-04T06:40:57.064Z,2.89
2023-05-04T06:41:57.049Z,2.36
2023-05-04T06:42:56.939Z,2.26
2023-05-04T06:43:58.832Z,2.65
2023-05-04T06:44:56.833Z,2.66
2023-05-04T06:45:56.856Z,2.89
2023-05-04T06:46:56.829Z,2.95
2023-05-04T06:47:56.868Z,2.73
2023-05-04T06:48:56.856Z,2.82
2023-05-04T06:49:56.866Z,2.52
2023-05-04T06:50:56.894Z,2.67
2023-05-04T06:51:56.928Z,2.14
2023-05-04T06:52:56.937Z,2.31
2023-05-04T06:53:56.992Z,2.78
2023-05-04T06:54:56.941Z,2.63
2023-05-04T06:55:56.976Z,2.36
2023-05-04T06:56:56.977Z,2.54
2023-05-04T06:57:56.999Z,2.28
2023-05-04T06:58:56.998Z,2.21
2023-05-04T06:59:57.011Z,2.38
2023-05-04T07:00:57.024Z,2.78
2023-05-04T07:01:57.014Z,2.28
2023-05-04T07:02:57.058Z,2.41
2023-05-04T07:03:57.051Z,2.66
2023-05-04T07:04:57.037Z,2.47
2023-05-04T07:05:57.048Z,2.19
2023-05-04T07:06:57.036Z,2.42
2023-05-04T07:07:57.032Z,2.36
2023-05-04T07:08:57.044Z,2.43
2023-05-04T07:09:57.048Z,2.39
2023-05-04T07:10:57.034Z,2.21
2023-05-04T07:11:57.020Z,1.95
2023-05-04T07:12:57.114Z,2.26
2023-05-04T07:13:57.014Z,2.35
2023-05-04T07:14:57.013Z,2.80
2023-05-04T07:15:57.038Z,4.58
2023-05-04T07:16:56.987Z,4.00
2023-05-04T07:17:57.075Z,3.73
2023-05-04T07:18:56.988Z,4.57
2023-05-04T07:19:57.010Z,4.31
2023-05-04T07:21:10.759Z,3.87
2023-05-04T07:21:57.937Z,4.43
2023-05-04T07:22:56.923Z,4.34
2023-05-04T07:23:56.884Z,3.79
2023-05-04T07:24:56.822Z,4.06
2023-05-04T07:25:56.704Z,4.13
2023-05-04T07:26:56.663Z,3.96
2023-05-04T07:27:56.585Z,3.68
2023-05-04T07:28:56.539Z,3.65
2023-05-04T07:29:56.487Z,3.49
2023-05-04T07:30:56.406Z,3.32
2023-05-04T07:31:56.378Z,3.30
2023-05-04T07:32:56.324Z,3.15
2023-05-04T07:33:56.272Z,3.52
2023-05-04T07:34:56.188Z,4.20
2023-05-04T07:35:56.158Z,3.42
2023-05-04T07:36:56.144Z,3.67
2023-05-04T07:37:56.121Z,2.95
2023-05-04T07:38:56.107Z,3.25
2023-05-04T07:39:56.340Z,3.37
2023-05-04T07:40:56.068Z,3.34
2023-05-04T07:41:56.041Z,3.23
2023-05-04T07:42:56.010Z,2.96
2023-05-04T07:43:55.984Z,3.65
2023-05-04T07:44:55.977Z,3.48
2023-05-04T07:45:55.971Z,3.26
2023-05-04T07:46:55.895Z,3.11
2023-05-04T07:47:55.895Z,3.72
2023-05-04T07:48:55.858Z,3.23
2023-05-04T07:49:55.813Z,3.09
2023-05-04T07:50:55.771Z,2.74
2023-05-04T07:51:55.738Z,3.27
2023-05-04T07:52:55.696Z,3.24
2023-05-04T07:53:55.696Z,3.05
2023-05-04T07:54:55.653Z,3.07
2023-05-04T07:55:56.097Z,3.36
2023-05-04T07:56:55.575Z,3.20
2023-05-04T07:57:55.499Z,2.88
2023-05-04T07:58:56.093Z,2.75
2023-05-04T07:59:55.419Z,3.17
2023-05-04T08:00:55.376Z,3.07
2023-05-04T08:01:55.366Z,2.34
2023-05-04T08:02:55.312Z,3.36
2023-05-04T08:03:55.253Z,3.26
2023-05-04T08:04:55.237Z,2.85
2023-05-04T08:05:55.238Z,2.99
2023-05-04T08:06:55.208Z,2.93
2023-05-04T08:07:55.121Z,3.08
2023-05-04T08:08:55.109Z,2.80
2023-05-04T08:09:55.062Z,2.93
2023-05-04T08:10:57.717Z,2.76
2023-05-04T08:11:55.990Z,2.82
2023-05-04T08:12:54.960Z,2.80
2023-05-04T08:13:54.877Z,3.09
2023-05-04T08:14:54.979Z,3.07
2023-05-04T08:15:54.767Z,3.49
2023-05-04T08:16:54.733Z,2.71
2023-05-04T08:17:54.713Z,2.41
2023-05-04T08:18:54.624Z,2.92
2023-05-04T08:19:54.850Z,2.74
2023-05-04T08:20:54.665Z,3.66
2023-05-04T08:21:54.484Z,4.73
2023-05-04T08:22:54.429Z,3.80
2023-05-04T08:23:54.399Z,3.09
2023-05-04T08:24:54.354Z,3.43
2023-05-04T08:25:54.298Z,3.52
2023-05-04T08:27:06.540Z,3.26
2023-05-04T08:27:55.256Z,3.34
2023-05-04T08:28:54.165Z,3.16
2023-05-04T08:29:54.137Z,3.47
2023-05-04T08:30:54.077Z,3.21
2023-05-04T08:31:54.118Z,4.25
2023-05-04T08:33:53.948Z,3.63
2023-05-04T08:34:53.886Z,3.13
2023-05-04T08:35:53.846Z,2.99
2023-05-04T08:36:53.795Z,3.10
2023-05-04T08:37:53.755Z,3.16
2023-05-04T08:38:53.695Z,3.11
2023-05-04T08:39:53.662Z,3.31
2023-05-04T08:40:53.613Z,3.10
2023-05-04T08:41:53.557Z,2.94
2023-05-04T08:42:53.530Z,3.68
2023-05-04T08:43:53.475Z,3.47
2023-05-04T08:44:53.417Z,3.50
2023-05-04T08:45:53.386Z,2.90
2023-05-04T08:46:53.553Z,3.04
2023-05-04T08:47:53.348Z,2.89
2023-05-04T08:48:53.227Z,3.60
2023-05-04T08:49:53.210Z,3.15
2023-05-04T08:50:53.187Z,3.30
2023-05-04T08:51:53.157Z,2.59
2023-05-04T08:52:53.140Z,2.98
2023-05-04T08:53:53.125Z,3.04
2023-05-04T08:54:53.113Z,3.23
2023-05-04T08:55:53.098Z,3.37
2023-05-04T08:56:53.080Z,2.90
2023-05-04T08:57:53.051Z,2.91
2023-05-04T08:58:53.015Z,2.85
2023-05-04T08:59:53.002Z,2.89
2023-05-04T09:00:53.110Z,3.37
2023-05-04T09:01:53.006Z,2.88
2023-05-04T09:02:52.981Z,3.46
2023-05-04T09:03:53.120Z,2.91
2023-05-04T09:04:52.926Z,2.87
2023-05-04T09:05:52.868Z,3.44
2023-05-04T09:06:52.852Z,3.08
2023-05-04T09:07:52.847Z,2.95
2023-05-04T09:08:52.808Z,3.33
2023-05-04T09:09:52.800Z,2.92
2023-05-04T09:10:52.774Z,3.16
2023-05-04T09:11:52.775Z,2.81
2023-05-04T09:12:52.808Z,3.33
2023-05-04T09:13:52.762Z,2.71
2023-05-04T09:14:52.853Z,2.95
2023-05-04T09:15:52.710Z,2.71
2023-05-04T09:16:52.745Z,3.38
2023-05-04T09:17:57.749Z,2.80
2023-05-04T09:18:53.663Z,3.03
2023-05-04T09:19:52.597Z,2.68
2023-05-04T09:20:52.613Z,2.74
2023-05-04T09:21:52.512Z,2.66
2023-05-04T09:22:52.538Z,2.95
2023-05-04T09:23:52.611Z,3.00
2023-05-04T09:24:52.395Z,3.00
2023-05-04T09:25:52.338Z,2.68
2023-05-04T09:26:52.298Z,3.31
2023-05-04T09:27:52.244Z,2.90
2023-05-04T09:28:52.208Z,2.77
2023-05-04T09:29:52.155Z,2.86
2023-05-04T09:30:52.133Z,3.30
2023-05-04T09:31:52.091Z,3.13
2023-05-04T09:32:52.063Z,2.75
2023-05-04T09:33:53.372Z,2.69
2023-05-04T09:34:51.952Z,3.00
2023-05-04T09:35:51.944Z,3.04
2023-05-04T09:36:51.933Z,2.78
2023-05-04T09:37:51.932Z,2.74
2023-05-04T09:38:51.900Z,2.90
2023-05-04T09:39:52.957Z,3.35
2023-05-04T09:40:51.868Z,2.66
2023-05-04T09:41:51.849Z,2.91
2023-05-04T09:42:51.850Z,2.67
2023-05-04T09:43:51.826Z,2.45
2023-05-04T09:44:51.818Z,2.94
2023-05-04T09:45:51.895Z,2.48
2023-05-04T09:46:51.818Z,2.66
2023-05-04T09:47:51.801Z,2.57
2023-05-04T09:48:51.774Z,3.04
2023-05-04T09:49:51.734Z,2.73
2023-05-04T09:50:51.726Z,2.68
2023-05-04T09:51:51.695Z,2.55
2023-05-04T09:52:51.694Z,2.84
2023-05-04T09:53:51.688Z,2.52
2023-05-04T09:54:51.659Z,2.73
2023-05-04T09:55:51.652Z,3.07
2023-05-04T09:56:51.625Z,2.79
2023-05-04T09:57:51.633Z,2.55
2023-05-04T09:58:51.613Z,2.79
2023-05-04T09:59:51.583Z,2.78
2023-05-04T10:00:51.581Z,2.94
2023-05-04T10:01:51.604Z,2.49
2023-05-04T10:02:51.609Z,2.81
2023-05-04T10:03:51.553Z,4.52
2023-05-04T10:04:51.606Z,2.54
2023-05-04T10:05:51.684Z,2.92
2023-05-04T10:06:51.549Z,2.62
2023-05-04T10:07:51.580Z,2.78
2023-05-04T10:08:51.561Z,2.48
2023-05-04T10:09:51.595Z,2.28
2023-05-04T10:10:51.591Z,2.70
2023-05-04T10:11:51.614Z,2.63
2023-05-04T10:12:51.702Z,2.28
2023-05-04T10:13:51.692Z,2.48
2023-05-04T10:14:51.720Z,2.98
2023-05-04T10:15:51.752Z,3.08
2023-05-04T10:16:51.752Z,2.84
2023-05-04T10:17:51.805Z,2.63
2023-05-04T10:18:51.812Z,2.94
2023-05-04T10:19:51.819Z,2.74
2023-05-04T10:20:51.799Z,2.58
2023-05-04T10:21:51.766Z,2.72
2023-05-04T10:22:51.724Z,3.03
2023-05-04T10:23:51.702Z,2.97
2023-05-04T10:24:51.687Z,2.92
2023-05-04T10:25:51.651Z,3.66
2023-05-04T10:26:51.618Z,4.49
2023-05-04T10:27:51.595Z,3.88
2023-05-04T10:28:51.560Z,4.72
2023-05-04T10:29:51.556Z,3.78
2023-05-04T10:30:51.552Z,4.00
2023-05-04T10:31:51.609Z,3.47
2023-05-04T10:32:51.610Z,3.86
2023-05-04T10:33:51.574Z,3.26
2023-05-04T10:34:51.588Z,3.64
2023-05-04T10:35:51.583Z,3.62
2023-05-04T10:36:51.599Z,3.46
2023-05-04T10:37:51.611Z,3.77
2023-05-04T10:38:51.626Z,3.65
2023-05-04T10:39:51.613Z,3.37
2023-05-04T10:40:51.603Z,3.56
2023-05-04T10:41:51.585Z,3.50
2023-05-04T10:42:51.570Z,3.66
2023-05-04T10:43:51.562Z,3.43
2023-05-04T10:44:51.519Z,3.47
2023-05-04T10:45:51.507Z,3.14
2023-05-04T10:46:51.459Z,3.56
2023-05-04T10:47:51.458Z,3.39
2023-05-04T10:48:51.388Z,3.82
2023-05-04T10:49:51.351Z,3.26
2023-05-04T10:50:51.391Z,3.52
2023-05-04T10:51:51.270Z,3.71
2023-05-04T10:52:51.226Z,3.53
2023-05-04T10:53:51.182Z,3.26
2023-05-04T10:54:51.131Z,4.19
2023-05-04T10:55:51.077Z,3.41
2023-05-04T10:56:51.022Z,2.79
2023-05-04T10:57:50.972Z,3.54
2023-05-04T10:58:50.942Z,3.33
2023-05-04T10:59:50.896Z,3.00
2023-05-04T11:00:50.876Z,3.41
2023-05-04T11:01:50.788Z,3.19
2023-05-04T11:02:50.812Z,3.62
2023-05-04T11:03:50.702Z,3.85
2023-05-04T11:04:50.596Z,3.58
2023-05-04T11:05:50.533Z,3.23
2023-05-04T11:06:50.485Z,3.66
2023-05-04T11:07:50.458Z,3.26
2023-05-04T11:08:50.424Z,3.56
2023-05-04T11:09:50.356Z,3.85
2023-05-04T11:10:50.403Z,2.96
2023-05-04T11:11:50.256Z,3.02
2023-05-04T11:12:50.447Z,2.78
2023-05-04T11:13:50.227Z,3.66
2023-05-04T11:14:50.175Z,3.29
2023-05-04T11:15:50.162Z,3.47
2023-05-04T11:16:50.262Z,2.90
2023-05-04T11:17:50.173Z,3.33
2023-05-04T11:18:50.129Z,2.85
2023-05-04T11:19:50.114Z,2.79
2023-05-04T11:20:50.113Z,3.31
2023-05-04T11:21:50.117Z,2.88
2023-05-04T11:22:50.120Z,2.92
2023-05-04T11:23:50.144Z,2.82
2023-05-04T11:24:50.197Z,3.20
2023-05-04T11:25:50.202Z,2.99
2023-05-04T11:26:50.177Z,2.61
2023-05-04T11:27:50.194Z,3.77
2023-05-04T11:28:50.210Z,3.14
2023-05-04T11:29:50.244Z,3.17
2023-05-04T11:30:50.205Z,3.26
2023-05-04T11:31:50.252Z,3.06
2023-05-04T11:32:50.284Z,2.81
2023-05-04T11:33:50.202Z,2.40
2023-05-04T11:34:50.205Z,2.74
2023-05-04T11:35:50.238Z,2.67
2023-05-04T11:36:50.235Z,3.18
2023-05-04T11:37:50.234Z,3.00
2023-05-04T11:38:50.258Z,3.24
2023-05-04T11:39:50.197Z,2.46
2023-05-04T11:40:50.203Z,2.98
2023-05-04T11:41:50.201Z,3.14
2023-05-04T11:42:50.202Z,3.15
2023-05-04T11:43:50.160Z,2.80
2023-05-04T11:44:50.126Z,2.72
2023-05-04T11:45:50.099Z,2.67
2023-05-04T11:46:50.110Z,2.26
2023-05-04T11:47:50.119Z,3.06
2023-05-04T11:48:50.026Z,2.59
2023-05-04T11:49:50.004Z,2.99
2023-05-04T11:50:49.957Z,3.21
2023-05-04T11:51:49.963Z,3.42
2023-05-04T11:52:49.947Z,3.13
2023-05-04T11:53:49.921Z,3.03
2023-05-04T11:54:49.927Z,3.21
2023-05-04T11:55:49.908Z,2.90
2023-05-04T11:56:49.881Z,3.16
2023-05-04T11:57:49.880Z,2.89
2023-05-04T11:58:49.882Z,2.90
2023-05-04T11:59:49.866Z,2.85
2023-05-04T12:00:49.844Z,2.50
2023-05-04T12:01:49.827Z,2.83
2023-05-04T12:02:49.916Z,2.73
2023-05-04T12:03:53.730Z,3.05
2023-05-04T12:04:49.733Z,2.64
2023-05-04T12:05:49.731Z,2.69
2023-05-04T12:06:49.634Z,2.83
2023-05-04T12:07:49.587Z,2.70
2023-05-04T12:08:49.531Z,2.60
2023-05-04T12:09:49.489Z,2.38
2023-05-04T12:10:49.419Z,2.48
2023-05-04T12:11:49.376Z,2.88
2023-05-04T12:12:49.412Z,2.69
2023-05-04T12:13:49.296Z,2.72
2023-05-04T12:14:49.231Z,2.77
2023-05-04T12:15:49.154Z,2.08
2023-05-04T12:16:49.170Z,2.38
2023-05-04T12:17:49.064Z,2.76
2023-05-04T12:18:49.013Z,2.57
2023-05-04T12:19:48.965Z,2.24
2023-05-04T12:20:48.907Z,2.04
2023-05-04T12:21:48.869Z,2.62
2023-05-04T12:22:48.795Z,2.47
2023-05-04T12:23:48.814Z,2.42
2023-05-04T12:24:48.766Z,2.68
2023-05-04T12:25:57.738Z,2.59
2023-05-04T12:26:49.703Z,2.28
2023-05-04T12:27:48.641Z,2.29
2023-05-04T12:28:48.589Z,2.56
2023-05-04T12:29:48.535Z,2.47
2023-05-04T12:30:48.478Z,2.38
2023-05-04T12:31:48.497Z,2.36
2023-05-04T12:32:48.384Z,3.26
2023-05-04T12:33:48.297Z,2.93
2023-05-04T12:34:48.254Z,2.70
2023-05-04T12:35:48.189Z,2.42
2023-05-04T12:36:48.124Z,1.96
2023-05-04T12:37:48.079Z,2.06
2023-05-04T12:38:48.028Z,2.23
2023-05-04T12:39:47.981Z,2.62
2023-05-04T12:40:47.939Z,2.45
2023-05-04T12:41:47.935Z,2.33
2023-05-04T12:42:47.919Z,2.16
2023-05-04T12:43:47.897Z,2.99
2023-05-04T12:44:47.898Z,2.49
2023-05-04T12:45:47.941Z,2.00
2023-05-04T12:46:47.891Z,2.32
2023-05-04T12:47:47.893Z,2.27
2023-05-04T12:48:47.835Z,1.92
2023-05-04T12:49:47.817Z,2.19
2023-05-04T12:50:47.798Z,2.29
2023-05-04T12:51:47.796Z,2.14
2023-05-04T12:52:47.790Z,2.73
2023-05-04T12:53:47.764Z,2.37
2023-05-04T12:54:47.786Z,2.18
2023-05-04T12:55:47.750Z,2.34
2023-05-04T12:56:47.746Z,1.97
2023-05-04T12:57:47.719Z,2.74
2023-05-04T12:58:47.717Z,2.07
2023-05-04T12:59:47.740Z,2.41
2023-05-04T13:00:47.666Z,2.43
2023-05-04T13:01:47.715Z,2.25
2023-05-04T13:02:47.691Z,2.49
2023-05-04T13:03:47.707Z,2.06
2023-05-04T13:04:47.581Z,2.17
2023-05-04T13:05:48.292Z,1.88
2023-05-04T13:06:48.471Z,2.30
2023-05-04T13:07:47.523Z,2.08
2023-05-04T13:08:47.513Z,2.01
2023-05-04T13:09:47.473Z,1.97
2023-05-04T13:10:47.475Z,2.44
2023-05-04T13:11:47.439Z,2.21
2023-05-04T13:12:47.447Z,2.28
2023-05-04T13:13:47.372Z,2.05
2023-05-04T13:14:47.357Z,2.36
2023-05-04T13:15:47.381Z,2.08
2023-05-04T13:16:48.454Z,2.01
2023-05-04T13:17:47.511Z,1.96
2023-05-04T13:18:47.442Z,2.44
2023-05-04T13:19:47.407Z,2.30